Time;durP1;ratioP1;P1;durP2;ratioP2;P2;SDS_P1;SDS_P2;PMS_P1;PMS_P2;Temp;Humidity;BMP_temperature;BMP_pressure;BME280_temperature;BME280_humidity;BME280_pressure;Samples;Min_cycle;Max_cycle;Signal;HPM_P1;HPM_P2
2022/08/31 00:05:45;;;;;;;8.80;4.63;;;;;;;17.19;100.00;96342.81;5071529;28;20051;-76
2022/08/31 00:08:10;;;;;;;6.60;4.00;;;;;;;17.14;100.00;96344.44;5061775;28;20840;-75
2022/08/31 00:10:39;;;;;;;9.52;4.18;;;;;;;17.08;100.00;96348.69;5055202;28;20029;-75
2022/08/31 00:13:06;;;;;;;9.32;4.85;;;;;;;17.09;100.00;96350.31;5065539;28;20120;-75
2022/08/31 00:15:32;;;;;;;8.93;5.13;;;;;;;17.07;100.00;96351.53;5064943;28;20638;-75
2022/08/31 00:17:58;;;;;;;13.45;4.57;;;;;;;17.09;100.00;96350.31;5054591;28;20494;-76
2022/08/31 00:20:25;;;;;;;8.13;4.55;;;;;;;17.09;100.00;96347.66;5053233;28;20021;-76
2022/08/31 00:22:51;;;;;;;10.50;5.22;;;;;;;17.05;100.00;96348.25;5051297;28;20114;-76
2022/08/31 00:25:17;;;;;;;7.15;4.25;;;;;;;17.22;100.00;96348.75;5065528;28;20032;-75
2022/08/31 00:27:43;;;;;;;10.10;5.00;;;;;;;17.09;100.00;96342.34;5065855;28;20036;-76
2022/08/31 00:30:10;;;;;;;8.88;4.93;;;;;;;17.16;100.00;96339.72;5064360;28;20029;-75
2022/08/31 00:32:37;;;;;;;10.55;4.45;;;;;;;17.19;100.00;96340.16;5055662;28;20137;-75
2022/08/31 00:35:04;;;;;;;11.07;4.57;;;;;;;17.03;100.00;96347.63;5054088;28;20052;-75
2022/08/31 00:37:30;;;;;;;11.38;5.32;;;;;;;17.11;100.00;96345.63;5068805;28;20028;-75
2022/08/31 00:39:56;;;;;;;7.97;4.30;;;;;;;17.12;100.00;96339.31;5070170;28;20397;-76
2022/08/31 00:42:22;;;;;;;8.20;4.47;;;;;;;17.07;100.00;96333.78;5042609;28;20032;-75
2022/08/31 00:44:48;;;;;;;9.68;4.95;;;;;;;17.09;100.00;96336.22;5064961;28;20027;-75
2022/08/31 00:47:14;;;;;;;9.05;5.68;;;;;;;17.03;100.00;96340.47;5064299;28;20486;-75
2022/08/31 00:49:46;;;;;;;11.38;5.05;;;;;;;16.98;100.00;96345.56;5070466;28;20059;-76
2022/08/31 00:52:15;;;;;;;7.78;4.88;;;;;;;16.99;100.00;96341.06;5056552;28;20086;-75
2022/08/31 00:54:47;;;;;;;10.63;5.03;;;;;;;17.04;100.00;96331.50;5071602;28;20714;-75
2022/08/31 00:57:13;;;;;;;7.53;4.43;;;;;;;17.05;100.00;96327.00;5058258;28;20051;-75
2022/08/31 00:59:41;;;;;;;8.45;5.22;;;;;;;16.98;100.00;96332.28;5056346;28;20062;-75
2022/08/31 01:02:07;;;;;;;7.75;4.47;;;;;;;16.91;100.00;96320.81;5054324;28;20135;-75
2022/08/31 01:04:33;;;;;;;8.85;4.55;;;;;;;17.00;100.00;96314.31;5069631;28;20048;-75
2022/08/31 01:07:00;;;;;;;7.78;5.03;;;;;;;16.92;100.00;96319.78;5062148;28;20028;-76
2022/08/31 01:09:29;;;;;;;9.93;5.03;;;;;;;16.91;100.00;96321.63;5067524;28;20085;-75
2022/08/31 01:11:55;;;;;;;8.38;5.30;;;;;;;16.94;100.00;96325.75;5067564;28;20054;-75
2022/08/31 01:14:21;;;;;;;9.80;4.85;;;;;;;16.92;100.00;96322.44;5065307;28;20505;-75
2022/08/31 01:16:51;;;;;;;10.15;5.55;;;;;;;16.79;100.00;96320.53;5061555;28;20747;-76
2022/08/31 01:19:31;;;;;;;9.80;5.03;;;;;;;16.72;100.00;96317.81;5062928;28;20060;-76
2022/08/31 01:22:09;;;;;;;8.95;4.55;;;;;;;16.82;100.00;96321.97;5073483;28;20493;-75
2022/08/31 01:24:36;;;;;;;9.52;5.50;;;;;;;16.89;100.00;96325.50;5059668;28;20045;-76
2022/08/31 01:27:03;;;;;;;8.52;4.65;;;;;;;16.80;100.00;96330.16;5059058;28;20024;-75
2022/08/31 01:29:31;;;;;;;9.52;5.05;;;;;;;16.86;100.00;96331.19;5066975;28;20516;-75
2022/08/31 01:31:57;;;;;;;8.43;5.28;;;;;;;16.77;100.00;96321.72;5058777;28;20048;-75
2022/08/31 01:34:23;;;;;;;9.32;5.30;;;;;;;16.82;100.00;96322.78;5059535;28;20031;-75
2022/08/31 01:36:49;;;;;;;8.40;5.13;;;;;;;16.78;100.00;96324.22;5058848;28;20107;-75
2022/08/31 01:39:18;;;;;;;9.50;5.13;;;;;;;16.71;100.00;96321.50;5066091;28;20123;-75
2022/08/31 01:41:44;;;;;;;9.02;4.60;;;;;;;16.76;100.00;96315.59;5082529;28;20051;-75
2022/08/31 01:44:13;;;;;;;7.90;5.20;;;;;;;16.85;100.00;96316.28;5062696;28;20064;-75
2022/08/31 01:46:39;;;;;;;11.05;4.70;;;;;;;16.84;100.00;96314.66;5056903;28;20028;-76
2022/08/31 01:49:05;;;;;;;10.73;5.22;;;;;;;16.78;100.00;96315.44;5060243;28;20032;-76
2022/08/31 01:51:31;;;;;;;12.82;5.50;;;;;;;16.65;100.00;96313.47;5068900;28;20032;-75
2022/08/31 01:53:56;;;;;;;8.10;5.93;;;;;;;16.76;100.00;96315.59;5063281;28;20033;-76
2022/08/31 01:56:29;;;;;;;9.90;5.68;;;;;;;16.81;100.00;96318.50;5061254;28;20044;-76
2022/08/31 01:58:57;;;;;;;9.75;5.22;;;;;;;16.72;100.00;96322.31;5058840;28;20570;-77
2022/08/31 02:01:50;;;;;;;8.68;6.15;;;;;;;16.72;100.00;96323.13;5074538;28;20362;-76
2022/08/31 02:04:19;;;;;;;10.63;5.65;;;;;;;16.68;100.00;96318.41;5062719;28;20453;-76
2022/08/31 02:06:49;;;;;;;11.40;6.03;;;;;;;16.71;100.00;96320.66;5084795;28;20074;-76
2022/08/31 02:09:16;;;;;;;10.07;5.65;;;;;;;16.70;100.00;96317.19;5056024;28;20078;-75
2022/08/31 02:11:42;;;;;;;9.70;5.47;;;;;;;16.68;100.00;96321.06;5070699;28;20024;-76
2022/08/31 02:14:08;;;;;;;9.13;5.68;;;;;;;16.70;100.00;96314.53;5062372;28;20618;-76
2022/08/31 02:16:35;;;;;;;8.20;4.93;;;;;;;16.70;100.00;96314.53;5051632;28;20017;-77
2022/08/31 02:19:02;;;;;;;9.00;5.63;;;;;;;16.65;100.00;96316.13;5060774;28;20040;-76
2022/08/31 02:21:28;;;;;;;9.43;5.45;;;;;;;16.73;100.00;96308.84;5069564;28;20031;-76
2022/08/31 02:23:54;;;;;;;8.25;5.88;;;;;;;16.70;100.00;96311.06;5061026;28;20592;-76
2022/08/31 02:26:20;;;;;;;9.02;6.20;;;;;;;16.61;100.00;96312.25;5051937;28;20111;-76
2022/08/31 02:28:46;;;;;;;10.70;5.97;;;;;;;16.64;100.00;96306.53;5066673;28;20043;-75
2022/08/31 02:31:13;;;;;;;9.93;5.30;;;;;;;16.60;100.00;96314.06;5068680;28;20111;-76
2022/08/31 02:33:46;;;;;;;11.18;6.35;;;;;;;16.59;100.00;96307.09;5067821;28;20027;-75
2022/08/31 02:36:11;;;;;;;10.48;6.45;;;;;;;16.62;100.00;96306.72;5058032;28;20021;-76
2022/08/31 02:38:38;;;;;;;12.13;6.82;;;;;;;16.66;100.00;96312.47;5065698;28;20111;-76
2022/08/31 02:41:04;;;;;;;10.77;5.80;;;;;;;16.72;100.00;96309.84;5068984;28;20036;-76
2022/08/31 02:43:31;;;;;;;8.98;6.10;;;;;;;16.58;100.00;96312.63;5068843;28;20107;-75
2022/08/31 02:45:57;;;;;;;10.32;6.35;;;;;;;16.68;100.00;96305.13;5065132;28;20038;-76
2022/08/31 02:48:28;;;;;;;8.73;6.13;;;;;;;16.60;100.00;96311.41;5065015;28;20055;-76
2022/08/31 02:51:03;;;;;;;12.88;6.00;;;;;;;16.53;100.00;96315.84;5068630;28;20128;-76
2022/08/31 02:53:29;;;;;;;10.35;7.10;;;;;;;16.46;100.00;96322.94;5052477;28;20036;-76
2022/08/31 02:55:55;;;;;;;12.98;6.05;;;;;;;16.52;100.00;96321.38;5060562;28;20024;-76
2022/08/31 02:58:20;;;;;;;7.90;6.15;;;;;;;16.47;100.00;96320.13;5068854;28;20763;-76
2022/08/31 03:00:47;;;;;;;9.57;6.32;;;;;;;16.52;100.00;96322.19;5064632;28;20039;-75
2022/08/31 03:03:14;;;;;;;13.40;6.78;;;;;;;16.43;100.00;96323.34;5052564;28;20511;-76
2022/08/31 03:05:41;;;;;;;9.45;6.38;;;;;;;16.52;100.00;96322.19;5049633;28;20028;-76
2022/08/31 03:08:07;;;;;;;11.65;6.57;;;;;;;16.44;100.00;96325.81;5059275;28;20489;-75
2022/08/31 03:10:33;;;;;;;11.88;6.82;;;;;;;16.46;100.00;96328.25;5063720;28;20032;-76
2022/08/31 03:13:00;;;;;;;12.43;6.53;;;;;;;16.50;100.00;96330.34;5057773;28;20024;-76
2022/08/31 03:15:27;;;;;;;10.85;6.75;;;;;;;16.49;100.00;96335.84;5065379;28;20016;-76
2022/08/31 03:17:53;;;;;;;10.40;7.43;;;;;;;16.55;100.00;96342.22;5052754;28;20616;-76
2022/08/31 03:20:23;;;;;;;16.20;10.00;;;;;;;16.48;100.00;96347.47;5065688;28;20108;-76
2022/08/31 03:22:49;;;;;;;11.25;8.20;;;;;;;16.46;100.00;96352.16;5057622;28;20024;-77
2022/08/31 03:25:16;;;;;;;9.35;6.32;;;;;;;16.35;100.00;96356.16;5057421;28;20031;-76
2022/08/31 03:27:43;;;;;;;9.35;6.90;;;;;;;16.16;100.00;96360.31;5039964;28;20029;-76
2022/08/31 03:30:13;;;;;;;7.30;5.72;;;;;;;16.06;100.00;96354.47;5069912;28;20436;-75
2022/08/31 03:32:44;;;;;;;10.13;6.45;;;;;;;16.14;100.00;96357.00;5059127;28;20021;-76
2022/08/31 03:35:10;;;;;;;12.23;6.38;;;;;;;16.00;100.00;96357.91;5054431;28;20025;-76
2022/08/31 03:37:37;;;;;;;8.77;6.15;;;;;;;16.06;100.00;96357.13;5063818;28;20039;-76
2022/08/31 03:40:03;;;;;;;12.68;6.40;;;;;;;16.23;100.00;96344.41;5058182;28;20133;-76
2022/08/31 03:42:30;;;;;;;10.88;7.25;;;;;;;16.26;100.00;96355.50;5058761;28;20542;-76
2022/08/31 03:44:56;;;;;;;11.43;6.85;;;;;;;16.30;100.00;96355.94;5054161;28;20147;-76
2022/08/31 03:47:27;;;;;;;11.98;6.07;;;;;;;16.23;100.00;96370.94;5044900;28;20029;-76
2022/08/31 03:49:53;;;;;;;11.15;7.30;;;;;;;16.24;100.00;96375.25;5062975;28;20047;-76
2022/08/31 03:52:23;;;;;;;11.07;6.88;;;;;;;16.27;100.00;96377.53;5059232;28;20032;-76
2022/08/31 03:55:01;;;;;;;9.75;6.72;;;;;;;16.15;100.00;96377.22;5056866;28;20490;-77
2022/08/31 03:57:26;;;;;;;11.45;8.18;;;;;;;16.02;100.00;96385.03;5065577;28;20044;-76
2022/08/31 03:59:56;;;;;;;21.13;13.10;;;;;;;16.03;100.00;96387.53;5057194;28;20047;-76
2022/08/31 04:02:41;;;;;;;8.38;6.30;;;;;;;16.09;100.00;96396.53;5057446;28;20109;-76
2022/08/31 04:05:20;;;;;;;9.23;5.90;;;;;;;16.02;100.00;96385.03;5061090;28;20099;-75
2022/08/31 04:08:03;;;;;;;8.93;6.17;;;;;;;16.02;100.00;96393.00;5057674;28;20114;-76
2022/08/31 04:11:07;;;;;;;9.68;6.07;;;;;;;15.89;100.00;96387.56;5065669;28;20040;-76
2022/08/31 04:13:52;;;;;;;19.05;13.70;;;;;;;15.82;100.00;96386.69;5057235;28;20101;-76
2022/08/31 04:16:38;;;;;;;14.27;9.93;;;;;;;15.89;100.00;96376.97;5066283;28;20249;-76
2022/08/31 04:19:05;;;;;;;10.20;6.80;;;;;;;15.99;100.00;96382.78;5058800;28;20457;-76
2022/08/31 04:21:34;;;;;;;8.95;6.65;;;;;;;16.02;100.00;96385.03;5057095;28;20025;-76
2022/08/31 04:24:01;;;;;;;10.50;6.53;;;;;;;16.07;100.00;96385.31;5048906;28;20033;-75
2022/08/31 04:26:33;;;;;;;9.70;6.10;;;;;;;15.91;100.00;96383.72;5056856;28;20653;-76
2022/08/31 04:28:59;;;;;;;10.57;7.07;;;;;;;15.95;100.00;96384.16;5065279;28;20028;-76
2022/08/31 04:31:27;;;;;;;8.98;6.72;;;;;;;16.07;100.00;96385.31;5048643;28;20037;-76
2022/08/31 04:33:56;;;;;;;9.63;6.50;;;;;;;16.07;100.00;96384.50;5048478;28;20040;-76
2022/08/31 04:36:24;;;;;;;11.70;7.38;;;;;;;16.01;100.00;96386.06;5055827;28;20511;-76
2022/08/31 04:38:54;;;;;;;11.18;6.75;;;;;;;16.02;100.00;96387.69;5057094;28;20036;-76
2022/08/31 04:41:23;;;;;;;9.63;6.63;;;;;;;16.01;100.00;96394.03;5052610;28;20119;-76
2022/08/31 04:43:53;;;;;;;8.05;6.03;;;;;;;16.10;100.00;96398.19;5061534;28;20246;-76
2022/08/31 04:46:20;;;;;;;11.88;6.78;;;;;;;16.11;100.00;96399.03;5051785;28;20024;-76
2022/08/31 04:48:47;;;;;;;10.48;6.00;;;;;;;16.13;100.00;96403.13;5052371;28;20026;-76
2022/08/31 04:51:20;;;;;;;7.93;6.13;;;;;;;16.16;100.00;96408.06;5060308;28;20029;-75
2022/08/31 04:53:46;;;;;;;11.15;6.57;;;;;;;16.14;100.00;96411.91;5043385;28;20029;-76
2022/08/31 04:56:16;;;;;;;13.13;6.85;;;;;;;16.05;100.00;96419.16;5059353;28;20044;-76
2022/08/31 04:58:51;;;;;;;10.57;6.75;;;;;;;16.09;100.00;96407.16;5060457;28;20033;-75
2022/08/31 05:01:21;;;;;;;9.40;6.28;;;;;;;16.15;100.00;96414.34;5069891;28;20505;-76
2022/08/31 05:04:06;;;;;;;11.10;6.10;;;;;;;16.18;100.00;96410.50;5066921;28;20031;-76
2022/08/31 05:06:34;;;;;;;16.00;6.60;;;;;;;16.31;100.00;96401.84;5067340;28;20027;-76
2022/08/31 05:09:07;;;;;;;10.93;7.18;;;;;;;16.35;100.00;96406.59;5060664;28;20028;-76
2022/08/31 05:11:34;;;;;;;10.48;7.00;;;;;;;16.17;100.00;96401.75;5060874;28;20020;-76
2022/08/31 05:14:01;;;;;;;10.63;7.35;;;;;;;15.98;100.00;96410.31;5060395;28;20082;-76
2022/08/31 05:16:32;;;;;;;10.85;6.88;;;;;;;16.12;100.00;96406.78;5059683;28;20475;-76
2022/08/31 05:18:59;;;;;;;9.93;6.32;;;;;;;16.12;100.00;96395.34;5066880;28;20033;-76
2022/08/31 05:21:31;;;;;;;11.63;6.93;;;;;;;16.05;100.00;96399.78;5068227;28;20055;-75
2022/08/31 05:23:58;;;;;;;8.35;6.07;;;;;;;16.11;100.00;96402.50;5063411;28;20107;-76
2022/08/31 05:26:30;;;;;;;9.95;6.93;;;;;;;16.11;100.00;96393.72;5060713;28;20099;-75
2022/08/31 05:28:58;;;;;;;10.55;6.85;;;;;;;16.20;100.00;96397.88;5067900;28;20393;-75
2022/08/31 05:31:25;;;;;;;10.70;6.60;;;;;;;16.13;100.00;96400.47;5063728;28;20111;-76
2022/08/31 05:33:52;;;;;;;10.68;6.45;;;;;;;16.08;100.00;96402.06;5064351;28;20509;-76
2022/08/31 05:36:26;;;;;;;9.73;6.25;;;;;;;16.24;100.00;96399.16;5063079;28;20063;-76
2022/08/31 05:38:52;;;;;;;12.27;6.90;;;;;;;16.19;100.00;96405.00;5058496;28;20111;-76
2022/08/31 05:41:23;;;;;;;9.95;6.13;;;;;;;16.05;100.00;96408.53;5047994;28;20115;-75
2022/08/31 05:43:48;;;;;;;10.70;6.60;;;;;;;15.94;100.00;96422.31;5055673;28;20036;-75
2022/08/31 05:46:15;;;;;;;10.48;6.75;;;;;;;16.03;100.00;96429.97;5052908;28;20031;-75
2022/08/31 05:48:43;;;;;;;11.00;6.97;;;;;;;16.04;100.00;96417.53;5067545;28;20042;-76
2022/08/31 05:51:14;;;;;;;12.07;6.82;;;;;;;16.13;100.00;96427.00;5065221;28;20028;-75
2022/08/31 05:53:40;;;;;;;10.75;7.32;;;;;;;16.16;100.00;96425.78;5059121;28;20032;-75
2022/08/31 05:56:10;;;;;;;11.13;7.00;;;;;;;16.26;100.00;96424.47;5066684;28;20052;-76
2022/08/31 05:58:38;;;;;;;12.57;6.35;;;;;;;16.33;100.00;96427.19;5056929;28;20043;-76
2022/08/31 06:01:12;;;;;;;14.75;6.60;;;;;;;16.38;100.00;96426.63;5063635;28;20098;-76
2022/08/31 06:04:13;;;;;;;9.65;6.75;;;;;;;16.36;100.00;96425.97;5054393;28;20498;-76
2022/08/31 06:06:40;;;;;;;9.60;6.63;;;;;;;16.37;100.00;96432.94;5050875;28;20094;-76
2022/08/31 06:09:10;;;;;;;8.80;6.70;;;;;;;16.38;100.00;96426.63;5045412;28;20090;-76
2022/08/31 06:11:40;;;;;;;9.32;6.88;;;;;;;16.46;100.00;96423.81;5067299;28;20107;-76
2022/08/31 06:14:09;;;;;;;9.23;6.63;;;;;;;16.48;100.00;96435.06;5059834;28;20508;-76
2022/08/31 06:16:37;;;;;;;10.45;6.72;;;;;;;16.57;100.00;96431.28;5058492;28;20469;-76
2022/08/31 06:19:06;;;;;;;10.25;6.28;;;;;;;16.67;100.00;96434.44;5060543;28;20028;-76
2022/08/31 06:21:37;;;;;;;10.23;6.50;;;;;;;16.60;100.00;96438.03;5042457;28;20066;-76
2022/08/31 06:24:04;;;;;;;10.05;6.72;;;;;;;16.68;100.00;96436.06;5076342;28;20035;-76
2022/08/31 06:26:32;;;;;;;12.10;8.23;;;;;;;16.75;100.00;96443.28;5067767;28;20047;-75
2022/08/31 06:29:04;;;;;;;10.70;7.40;;;;;;;16.75;100.00;96443.28;5058119;28;20013;-76
2022/08/31 06:31:41;;;;;;;11.73;7.50;;;;;;;16.90;100.00;96438.69;5059022;28;20029;-76
2022/08/31 06:34:07;;;;;;;12.48;8.45;;;;;;;16.92;100.00;96436.66;5056099;28;20071;-75
2022/08/31 06:36:52;;;;;;;10.52;7.30;;;;;;;17.07;100.00;96441.88;5063973;28;20034;-76
2022/08/31 06:39:30;;;;;;;10.10;6.97;;;;;;;16.96;100.00;96443.22;5062778;28;20040;-76
2022/08/31 06:42:09;;;;;;;11.38;6.82;;;;;;;16.94;100.00;96445.28;5066275;28;20031;-76
2022/08/31 06:44:53;;;;;;;12.43;7.07;;;;;;;16.87;100.00;96444.41;5065537;28;20036;-76
2022/08/31 06:47:22;;;;;;;11.35;7.10;;;;;;;17.04;100.00;96443.09;5061157;28;20050;-76
2022/08/31 06:49:48;;;;;;;9.93;6.78;;;;;;;17.01;100.00;96446.16;5059942;28;20032;-76
2022/08/31 06:52:14;;;;;;;10.75;7.60;;;;;;;16.95;100.00;96447.72;5056058;28;20035;-77
2022/08/31 06:54:44;;;;;;;12.93;7.35;;;;;;;16.90;100.00;96454.63;5057643;28;20488;-76
2022/08/31 06:57:28;;;;;;;8.68;6.60;;;;;;;17.04;100.00;96455.56;5059130;28;20082;-76
2022/08/31 07:00:12;;;;;;;10.90;7.13;;;;;;;16.98;100.00;96454.50;5059983;28;20117;-76
2022/08/31 07:02:57;;;;;;;10.68;7.13;;;;;;;17.03;100.00;96462.69;5059354;28;20393;-76
2022/08/31 07:05:22;;;;;;;9.95;6.55;;;;;;;17.18;100.00;96463.41;5057535;28;20028;-76
2022/08/31 07:07:48;;;;;;;10.70;7.05;;;;;;;17.08;100.00;96460.28;5060139;28;20454;-76
2022/08/31 07:10:14;;;;;;;12.25;7.07;;;;;;;17.14;100.00;96448.88;5061096;28;20926;-76
2022/08/31 07:12:40;;;;;;;10.48;7.53;;;;;;;17.22;100.00;96452.41;5063832;28;20056;-76
2022/08/31 07:15:06;;;;;;;11.57;7.43;;;;;;;17.40;100.00;96447.38;5041552;28;20023;-76
2022/08/31 07:17:32;;;;;;;9.40;7.30;;;;;;;17.54;100.00;96454.44;5048908;28;20147;-76
2022/08/31 07:19:59;;;;;;;11.85;7.40;;;;;;;17.51;100.00;96454.00;5065846;28;20058;-76
2022/08/31 07:22:26;;;;;;;11.00;7.40;;;;;;;17.73;100.00;96457.34;5058967;28;20025;-76
2022/08/31 07:25:02;;;;;;;10.13;6.88;;;;;;;17.59;100.00;96461.78;5058493;28;20059;-76
2022/08/31 07:27:29;;;;;;;15.40;8.38;;;;;;;18.01;100.00;96459.97;5056836;28;20036;-76
2022/08/31 07:29:59;;;;;;;11.20;7.70;;;;;;;18.19;100.00;96456.72;5065759;28;20056;-76
2022/08/31 07:32:27;;;;;;;11.63;7.63;;;;;;;18.12;100.00;96460.19;5057952;28;20078;-76
2022/08/31 07:34:52;;;;;;;11.30;6.55;;;;;;;18.35;100.00;96456.34;5056450;28;20028;-76
2022/08/31 07:42:54;;;;;;;15.00;7.95;;;;;;;18.18;100.00;96471.06;5063698;28;20121;-76
2022/08/31 07:45:22;;;;;;;10.52;7.10;;;;;;;18.08;100.00;96469.59;5057217;28;20020;-77
2022/08/31 07:47:50;;;;;;;12.07;7.40;;;;;;;18.05;100.00;96479.81;5063855;28;20054;-76
2022/08/31 07:50:20;;;;;;;12.45;7.43;;;;;;;18.00;100.00;96484.91;5059839;28;20529;-77
2022/08/31 07:53:05;;;;;;;11.93;6.90;;;;;;;17.84;100.00;96480.75;5059638;28;20062;-76
2022/08/31 07:55:46;;;;;;;11.23;7.35;;;;;;;17.95;100.00;96474.88;5064551;28;20032;-76
2022/08/31 07:58:50;;;;;;;10.93;7.18;;;;;;;17.99;100.00;96477.94;5081349;28;20059;-76
2022/08/31 08:01:19;;;;;;;11.07;7.40;;;;;;;18.03;100.00;96474.69;5061119;28;20033;-77
2022/08/31 08:03:45;;;;;;;12.63;7.68;;;;;;;18.07;100.00;96470.59;5062777;28;20044;-76
2022/08/31 08:06:29;;;;;;;9.85;7.03;;;;;;;17.93;100.00;96484.88;5062174;28;20513;-76
2022/08/31 08:09:05;;;;;;;11.48;6.93;;;;;;;18.00;100.00;96483.06;5057635;28;20040;-76
2022/08/31 08:11:43;;;;;;;;;;;;;;;18.15;100.00;96482.91;5056181;28;20032;-76
2022/08/31 08:14:33;;;;;;;12.30;6.82;;;;;;;18.13;100.00;96483.09;5057726;28;19917;-76
2022/08/31 08:17:07;;;;;;;13.73;7.90;;;;;;;18.30;100.00;96488.88;5065708;28;20037;-76
2022/08/31 08:19:49;;;;;;;13.98;7.47;;;;;;;18.27;100.00;96493.78;5065969;28;20887;-77
2022/08/31 08:22:16;;;;;;;10.57;6.88;;;;;;;18.25;100.00;96494.00;5057608;28;20056;-76
2022/08/31 08:25:05;;;;;;;12.43;7.45;;;;;;;18.26;100.00;96494.81;5062757;28;20512;-76
2022/08/31 08:27:54;;;;;;;10.18;7.13;;;;;;;18.10;100.00;96499.47;5062240;28;20696;-76
2022/08/31 08:30:25;;;;;;;10.52;7.03;;;;;;;18.43;100.00;96506.72;5062397;28;20437;-76
2022/08/31 08:32:51;;;;;;;11.82;7.25;;;;;;;18.20;100.00;96500.94;5068541;28;20043;-76
2022/08/31 08:35:17;;;;;;;11.43;7.45;;;;;;;18.19;100.00;96507.28;5069154;28;20413;-76
2022/08/31 08:37:47;;;;;;;11.27;6.80;;;;;;;18.48;100.00;96508.81;5068827;28;20036;-76
2022/08/31 08:40:29;;;;;;;10.88;7.68;;;;;;;18.38;100.00;96514.53;5068908;28;20489;-76
2022/08/31 08:42:58;;;;;;;11.70;6.88;;;;;;;18.29;100.00;96510.38;5060263;28;20172;-76
2022/08/31 08:45:24;;;;;;;9.60;6.95;;;;;;;18.57;100.00;96515.56;5062943;28;20455;-76
2022/08/31 08:47:53;;;;;;;9.32;6.85;;;;;;;18.63;100.00;96511.28;5061240;28;20036;-76
2022/08/31 08:50:20;;;;;;;9.75;7.50;;;;;;;18.56;100.00;96522.75;5070484;28;20033;-76
2022/08/31 08:52:46;;;;;;;9.88;7.35;;;;;;;18.43;100.00;96525.38;5060290;28;20030;-76
2022/08/31 08:55:20;;;;;;;8.73;6.65;;;;;;;18.66;100.00;96519.69;5060119;28;20039;-77
2022/08/31 08:57:49;;;;;;;10.23;6.60;;;;;;;18.56;100.00;96529.91;5058830;28;20048;-76
2022/08/31 09:00:27;;;;;;;12.10;7.10;;;;;;;18.92;100.00;96526.09;5067420;28;20020;-76
2022/08/31 09:03:02;;;;;;;10.80;8.18;;;;;;;18.74;100.00;96532.81;5057018;28;20033;-76
2022/08/31 09:06:11;;;;;;;11.80;7.38;;;;;;;18.77;100.00;96534.28;5057306;28;20098;-75
2022/08/31 09:09:07;;;;;;;10.07;6.30;;;;;;;18.70;100.00;96531.56;5053766;28;20412;-76
2022/08/31 09:11:45;;;;;;;9.55;6.53;;;;;;;18.78;100.00;96528.75;5060263;28;20167;-76
2022/08/31 09:14:46;;;;;;;8.68;6.60;;;;;;;19.01;100.00;96527.53;5060353;28;20955;-76
2022/08/31 09:17:30;;;;;;;10.40;7.25;;;;;;;19.09;100.00;96532.66;5054327;28;20025;-76
2022/08/31 09:20:04;;;;;;;10.75;6.82;;;;;;;18.96;100.00;96522.81;5056727;28;20037;-77
2022/08/31 09:22:48;;;;;;;10.55;7.25;;;;;;;18.73;100.00;96523.19;5055896;28;20693;-76
2022/08/31 09:25:19;;;;;;;12.05;7.70;;;;;;;19.07;100.00;96519.53;5058874;28;20052;-76
2022/08/31 09:28:07;;;;;;;10.45;6.60;;;;;;;19.09;100.00;96516.66;5061968;28;20036;-76
2022/08/31 09:30:51;;;;;;;10.27;6.60;;;;;;;19.26;100.00;96517.88;5059899;28;20025;-76
2022/08/31 09:33:22;;;;;;;11.85;7.30;;;;;;;19.01;100.00;96520.38;5055006;28;20689;-76
2022/08/31 09:35:57;;;;;;;10.88;7.25;;;;;;;19.15;100.00;96515.00;5055591;28;20040;-76
2022/08/31 09:38:31;;;;;;;10.25;7.57;;;;;;;19.20;100.00;96512.56;5059262;28;20086;-75
2022/08/31 09:40:57;;;;;;;9.30;6.82;;;;;;;19.33;100.00;96507.19;5059595;28;20037;-76
2022/08/31 09:43:26;;;;;;;8.93;6.47;;;;;;;19.28;100.00;96515.84;5063479;28;20149;-76
2022/08/31 09:46:03;;;;;;;10.63;6.35;;;;;;;19.42;100.00;96518.50;5055829;28;20036;-76
2022/08/31 09:48:42;;;;;;;11.90;7.20;;;;;;;19.17;100.00;96513.78;5040196;28;20029;-76
2022/08/31 09:51:19;;;;;;;8.75;5.55;;;;;;;19.54;100.00;96522.94;5060771;28;20029;-75
2022/08/31 09:56:29;;;;;;;9.80;6.20;;;;;;;19.70;100.00;96516.38;5064337;28;20052;-76
2022/08/31 09:59:01;;;;;;;10.55;7.30;;;;;;;19.74;100.00;96519.44;5065062;28;20067;-75
2022/08/31 10:01:54;;;;;;;9.55;6.18;;;;;;;19.65;100.00;96518.88;5044729;28;20620;-76
2022/08/31 10:04:25;;;;;;;10.15;6.72;;;;;;;19.97;100.00;96513.63;5059398;28;20052;-76
2022/08/31 10:07:15;;;;;;;10.95;6.60;;;;;;;20.10;100.00;96510.09;5058637;28;20025;-76
2022/08/31 10:09:47;;;;;;;11.10;6.60;;;;;;;20.06;100.00;96516.88;5064905;28;20032;-76
2022/08/31 10:12:20;;;;;;;7.72;6.05;;;;;;;20.09;100.00;96511.94;5057959;28;20465;-76
2022/08/31 10:15:02;;;;;;;9.45;6.78;;;;;;;20.34;100.00;96512.00;5053185;28;20048;-75
2022/08/31 10:17:44;;;;;;;10.20;6.85;;;;;;;20.16;100.00;96517.25;5075440;28;20473;-75
2022/08/31 10:20:20;;;;;;;10.63;6.35;;;;;;;20.11;100.00;96509.06;5055051;28;20025;-76
2022/08/31 10:23:03;;;;;;;10.07;7.03;;;;;;;20.08;100.00;96507.63;5058347;28;20119;-75
2022/08/31 10:25:56;;;;;;;9.38;5.90;;;;;;;20.29;100.00;96511.84;5054708;28;20064;-76
2022/08/31 10:28:39;;;;;;;12.38;7.10;;;;;;;20.51;100.00;96511.53;5060920;28;20045;-76
2022/08/31 10:31:19;;;;;;;10.98;6.80;;;;;;;20.42;100.00;96516.28;5060820;28;20040;-76
2022/08/31 10:37:08;;;;;;;11.10;6.68;;;;;;;19.97;100.00;96521.63;5055845;28;20508;-76
2022/08/31 10:39:46;;;;;;;11.90;7.45;;;;;;;20.05;100.00;96513.38;5056969;28;20067;-76
2022/08/31 10:42:20;;;;;;;10.65;6.60;;;;;;;20.14;100.00;96509.44;5057356;28;20390;-76
2022/08/31 10:44:57;;;;;;;8.68;5.90;;;;;;;20.57;100.00;96511.50;5058327;28;20017;-76
2022/08/31 10:47:27;;;;;;;8.25;6.20;;;;;;;20.60;100.00;96510.25;5059629;28;20031;-76
2022/08/31 10:49:58;;;;;;;9.18;6.13;;;;;;;20.95;100.00;96503.41;5060826;28;20060;-76
2022/08/31 10:52:34;;;;;;;11.02;6.43;;;;;;;20.81;100.00;96509.91;5064177;28;20089;-75
2022/08/31 10:55:13;;;;;;;8.57;6.25;;;;;;;20.99;100.00;96503.78;5056400;28;20039;-75
2022/08/31 10:57:56;;;;;;;9.57;5.97;;;;;;;21.01;100.00;96503.59;5054044;28;20138;-75
2022/08/31 11:00:41;;;;;;;12.95;6.45;;;;;;;21.28;100.00;96494.28;5061354;28;20025;-75
2022/08/31 11:03:16;;;;;;;10.43;6.30;;;;;;;21.60;100.00;96499.56;5057798;28;20029;-76
2022/08/31 11:05:59;;;;;;;10.05;6.20;;;;;;;21.49;100.00;96498.41;5055348;28;20055;-75
2022/08/31 11:08:52;;;;;;;7.90;5.32;;;;;;;21.56;100.00;96493.00;5055244;28;20046;-75
2022/08/31 11:11:37;;;;;;;7.45;5.70;;;;;;;21.65;100.00;96494.34;5074155;28;20048;-76
2022/08/31 11:14:31;;;;;;;10.00;6.80;;;;;;;21.62;100.00;96494.78;5058832;28;20028;-78
2022/08/31 11:17:08;;;;;;;9.27;6.95;;;;;;;22.06;100.00;96492.84;5059279;28;20021;-76
2022/08/31 11:19:49;;;;;;;11.52;7.63;;;;;;;22.19;100.00;96497.25;5070335;28;20033;-76
2022/08/31 11:22:53;;;;;;;7.18;5.45;;;;;;;22.11;100.00;96493.81;5057736;28;20421;-76
2022/08/31 11:25:52;;;;;;;10.48;5.32;;;;;;;22.49;100.00;96494.56;5057366;28;20045;-76
2022/08/31 11:28:27;;;;;;;10.23;5.90;;;;;;;23.06;100.00;96495.78;5053802;28;20042;-76
2022/08/31 11:30:54;;;;;;;7.78;5.32;;;;;;;23.78;94.84;96488.56;5066009;28;20075;-76
2022/08/31 11:33:27;;;;;;;11.18;6.70;;;;;;;23.25;96.62;96496.50;5061549;28;20044;-75
2022/08/31 11:36:01;;;;;;;9.32;5.65;;;;;;;23.12;93.89;96488.66;5050413;28;20394;-75
2022/08/31 11:38:42;;;;;;;14.32;5.72;;;;;;;23.34;93.85;96491.59;5051182;28;20037;-75
2022/08/31 11:41:12;;;;;;;7.43;5.15;;;;;;;23.28;94.94;96487.97;5053304;28;20572;-75
2022/08/31 11:43:44;;;;;;;7.45;4.90;;;;;;;23.29;93.98;96480.75;5051504;28;20398;-74
2022/08/31 11:46:24;;;;;;;12.68;5.80;;;;;;;23.72;93.56;96480.38;5059748;28;20028;-75
2022/08/31 11:48:55;;;;;;;8.38;5.05;;;;;;;23.57;91.78;96477.31;5054865;28;20035;-76
2022/08/31 11:51:43;;;;;;;9.40;5.53;;;;;;;23.68;91.14;96481.91;5058597;28;20037;-75
2022/08/31 11:54:32;;;;;;;9.85;5.53;;;;;;;24.14;88.27;96482.81;5044334;28;20025;-76
2022/08/31 11:56:58;;;;;;;14.25;5.38;;;;;;;25.05;81.65;96473.97;5054788;28;20047;-75
2022/08/31 11:59:34;;;;;;;8.10;5.05;;;;;;;25.79;76.93;96468.34;5052552;28;20036;-75
2022/08/31 12:02:18;;;;;;;9.60;5.40;;;;;;;25.12;82.47;96461.22;5057394;28;20139;-76